Latest Weather Observations for Millendon (Swan Valley)

IDW60901

Issued at 2:21 pm WST Saturday 10 December 2022 (issued every 10 minutes, with the page automatically refreshed every 10 minutes)

About weather observations | Map of Perth area stations | Latest observations for Perth area | Other Formats
Station Details ID: 009281 Name: MILLENDON (SWAN VALLEY) Lat: -31.81 Lon: 116.02 Height: 15.62 m
Data from the previous 72 hours. | See also: Recent months at Millendon (Swan Valley)
Date/Time
WST
Temp
°C
App
Temp
°C
Dew
Point
°C
Rel
Hum
%
Delta-T
°C
Wind Press
QNH
hPa
Press
MSL
hPa
Rain since
9am
mm
Dir  Spd
km/h
Gust
km/h
Spd
kts
Gust
kts
10/02:00pm 25.3 20.7 8.3 34 9.1 SW 22 33 12 18 1017.1 1017.0 0.0
10/01:30pm 26.3 23.4 8.3 32 9.7 WSW 13 24 7 13 1016.9 1016.8 0.0
10/01:00pm 24.7 22.1 7.8 34 8.9 SSW 11 22 6 12 1017.1 1017.0 0.0
10/12:30pm 25.2 22.7 8.2 34 9.1 SSW 11 20 6 11 1017.3 1017.2 0.0
10/12:00pm 24.9 22.0 8.0 34 9.0 WSW 13 32 7 17 1017.6 1017.5 0.0
10/11:30am 25.1 22.3 8.6 35 8.9 SW 13 20 7 11 1018.0 1017.9 0.0
10/11:00am 22.5 20.3 7.9 39 7.6 S 9 20 5 11 1018.5 1018.4 0.0
10/10:30am 23.8 20.9 8.2 37 8.3 SSW 13 20 7 11 1018.4 1018.3 0.0
10/10:00am 21.6 19.7 7.4 40 7.3 ESE 7 15 4 8 1018.5 1018.4 0.0
10/09:30am 21.4 19.2 8.0 42 7.0 ESE 9 19 5 10 1018.7 1018.6 0.0
10/09:00am 20.8 18.4 7.1 41 7.0 SSE 9 19 5 10 1018.6 1018.5 0.0
10/08:30am 19.7 16.2 7.1 44 6.4 SSE 15 28 8 15 1018.8 1018.7 0.0
10/08:00am 19.5 16.8 7.3 45 6.2 SE 11 20 6 11 1018.5 1018.4 0.0
10/07:30am 18.9 16.6 7.4 47 5.8 SE 9 19 5 10 1018.4 1018.3 0.0
10/07:00am 18.1 16.9 9.5 57 4.5 SSE 6 11 3 6 1018.2 1018.1 0.0
10/06:30am 15.8 14.4 9.5 66 3.3 SSE 7 17 4 9 1017.9 1017.8 0.0
10/06:00am 11.4 11.2 10.6 95 0.4 SSW 2 6 1 3 1017.6 1017.5 0.0
10/05:30am 11.2 11.0 10.4 95 0.4 SSW 2 9 1 5 1017.3 1017.2 0.0
10/05:00am 11.5 11.0 10.7 95 0.4 SSW 4 4 2 2 1017.1 1017.0 0.0
10/04:30am 11.7 12.0 10.9 95 0.4 CALM 0 0 0 0 1016.7 1016.6 0.0
10/04:00am 11.6 11.5 10.7 94 0.5 S 2 2 1 1 1016.6 1016.5 0.0
10/03:30am 12.4 12.9 11.5 94 0.5 CALM 0 0 0 0 1016.4 1016.3 0.0
10/03:00am 12.4 12.8 11.3 93 0.6 CALM 0 0 0 0 1016.1 1016.0 0.0
10/02:30am 13.1 13.7 12.0 93 0.6 CALM 0 0 0 0 1016.0 1015.9 0.0
10/02:00am 13.5 14.3 12.4 93 0.6 CALM 0 0 0 0 1015.9 1015.8 0.0
10/01:30am 14.2 15.1 12.8 91 0.8 CALM 0 0 0 0 1015.8 1015.7 0.0
10/01:00am 14.9 15.2 13.3 90 0.9 S 4 6 2 3 1015.7 1015.6 0.0
10/12:30am 14.7 14.9 13.2 91 0.8 SSE 4 6 2 3 1015.7 1015.6 0.0
10/12:00am 14.7 15.7 13.1 90 0.9 CALM 0 0 0 0 1015.8 1015.7 0.0
 
Date/Time
WST
Temp
°C
App
Temp
°C
Dew
Point
°C
Rel
Hum
%
Delta-T
°C
Wind Press
QNH
hPa
Press
MSL
hPa
Rain since
9am
mm
Dir  Spd
km/h
Gust
km/h
Spd
kts
Gust
kts
09/11:30pm 15.2 16.2 13.2 88 1.1 CALM 0 0 0 0 1015.7 1015.6 0.0
09/11:00pm 16.0 17.2 13.7 86 1.3 CALM 0 2 0 1 1015.7 1015.6 0.0
09/10:30pm 16.6 17.3 13.5 82 1.7 S 2 4 1 2 1015.5 1015.4 0.0
09/10:00pm 17.4 17.4 13.7 79 2.1 S 6 13 3 7 1015.6 1015.5 0.0
09/09:30pm 17.8 17.8 13.5 76 2.4 SSW 6 9 3 5 1015.5 1015.4 0.0
09/09:00pm 17.6 17.4 13.1 75 2.5 SSW 6 9 3 5 1015.2 1015.1 0.0
09/08:30pm 18.0 18.2 12.9 72 2.9 SSW 4 7 2 4 1014.7 1014.6 0.0
09/08:00pm 18.7 17.8 12.7 68 3.4 SW 9 17 5 9 1014.8 1014.7 0.0
09/07:30pm 19.0 17.5 12.0 64 3.9 SW 11 19 6 10 1014.7 1014.6 0.0
09/07:00pm 19.6 17.7 11.9 61 4.3 SW 13 24 7 13 1014.4 1014.3 0.0
09/06:30pm 20.4 17.7 11.6 57 4.9 SW 17 26 9 14 1014.0 1013.9 0.0
09/06:00pm 21.5 19.4 11.2 52 5.7 SW 13 22 7 12 1013.7 1013.6 0.0
09/05:30pm 22.0 18.5 10.2 47 6.4 SW 19 28 10 15 1013.1 1013.0 0.0
09/05:00pm 22.5 19.4 10.3 46 6.7 SW 17 26 9 14 1012.7 1012.6 0.0
09/04:30pm 23.0 20.9 9.8 43 7.2 SW 11 22 6 12 1012.6 1012.5 0.0
09/04:00pm 22.6 18.9 10.1 45 6.8 SW 20 33 11 18 1012.5 1012.4 0.0
09/03:30pm 23.2 19.4 9.2 41 7.5 WSW 19 32 10 17 1012.4 1012.3 0.0
09/03:00pm 23.8 20.6 9.8 41 7.6 SW 17 30 9 16 1012.3 1012.2 0.0
09/02:30pm 23.7 20.3 9.3 40 7.8 WSW 17 32 9 17 1012.3 1012.2 0.0
09/02:00pm 24.4 21.2 9.9 40 8.0 WSW 17 28 9 15 1012.2 1012.1 0.0
09/01:30pm 25.0 22.2 10.1 39 8.2 SW 15 26 8 14 1012.1 1012.0 0.0
09/01:00pm 23.0 20.6 10.1 44 7.1 SW 13 22 7 12 1012.3 1012.2 0.0
09/12:30pm 24.0 22.2 9.6 40 7.8 SW 9 20 5 11 1012.3 1012.2 0.0
09/12:00pm 23.5 21.7 9.5 41 7.6 SSW 9 15 5 8 1012.5 1012.4 0.0
09/11:30am 22.9 21.1 9.3 42 7.3 WSW 9 15 5 8 1012.8 1012.7 0.0
09/11:00am 21.9 19.7 9.4 45 6.7 SW 11 17 6 9 1012.8 1012.7 0.0
09/10:30am 22.1 20.7 9.6 45 6.7 SSW 7 13 4 7 1012.8 1012.7 0.0
09/10:00am 22.4 19.5 8.1 40 7.5 SW 13 22 7 12 1012.9 1012.8 0.0
09/09:30am 21.0 18.9 9.9 49 6.0 SSW 11 20 6 11 1013.0 1012.9 0.0
09/09:00am 20.7 18.7 10.2 51 5.7 SW 11 17 6 9 1012.9 1012.8 0.0
09/08:30am 20.4 19.1 11.1 55 5.1 S 9 19 5 10 1012.9 1012.8 0.0
09/08:00am 19.1 18.2 11.2 60 4.3 S 7 13 4 7 1012.8 1012.7 0.0
09/07:30am 18.0 16.5 10.6 62 4.0 S 9 15 5 8 1012.8 1012.7 0.0
09/07:00am 18.3 17.6 11.4 64 3.8 S 6 13 3 7 1012.7 1012.6 0.0
09/06:30am 17.7 17.0 11.5 67 3.4 SSE 6 11 3 6 1012.5 1012.4 0.0
09/06:00am 17.1 16.5 11.6 70 3.0 SSW 6 11 3 6 1012.3 1012.2 0.0
09/05:30am 16.8 16.0 11.7 72 2.8 S 7 13 4 7 1012.1 1012.0 0.0
09/05:00am 16.8 16.0 11.7 72 2.8 S 7 13 4 7 1011.8 1011.7 0.0
09/04:30am 16.7 16.0 12.0 74 2.6 S 7 13 4 7 1011.6 1011.5 0.0
09/04:00am 16.4 16.4 12.4 77 2.2 SSE 4 7 2 4 1011.4 1011.3 0.0
09/03:30am 16.7 16.3 12.5 76 2.3 SSW 6 9 3 5 1011.2 1011.1 0.0
09/03:00am 16.9 16.3 12.2 74 2.6 SSW 7 11 4 6 1011.3 1011.2 0.0
09/02:30am 17.2 16.6 12.3 73 2.7 SSW 7 15 4 8 1011.3 1011.2 0.0
09/02:00am 17.1 16.7 12.4 74 2.6 SSW 6 9 3 5 1011.3 1011.2 0.0
09/01:30am 17.6 16.7 12.5 72 2.8 SW 9 15 5 8 1011.4 1011.3 0.0
09/01:00am 17.7 17.4 13.4 76 2.4 SSW 7 17 4 9 1011.2 1011.1 0.0
09/12:30am 17.1 17.0 13.4 79 2.1 SSW 6 9 3 5 1011.1 1011.0 0.0
09/12:00am 17.5 17.2 13.4 77 2.3 SSW 7 13 4 7 1011.4 1011.3 0.0
 
Date/Time
WST
Temp
°C
App
Temp
°C
Dew
Point
°C
Rel
Hum
%
Delta-T
°C
Wind Press
QNH
hPa
Press
MSL
hPa
Rain since
9am
mm
Dir  Spd
km/h
Gust
km/h
Spd
kts
Gust
kts
08/11:30pm 17.7 17.1 13.4 76 2.4 SSW 9 26 5 14 1011.6 1011.5 0.0
08/11:00pm 18.0 18.0 13.5 75 2.6 SSW 6 17 3 9 1011.9 1011.8 0.0
08/10:30pm 18.6 18.1 13.7 73 2.8 SSW 9 20 5 11 1011.9 1011.8 0.0
08/10:00pm 18.8 18.8 14.1 74 2.7 SSW 7 13 4 7 1011.9 1011.8 0.0
08/09:30pm 18.7 17.8 13.8 73 2.8 SSW 11 17 6 9 1011.9 1011.8 0.0
08/09:00pm 18.9 18.5 14.2 74 2.7 SSW 9 17 5 9 1011.6 1011.5 0.0
08/08:30pm 19.2 18.0 14.0 72 3.0 SW 13 20 7 11 1011.5 1011.4 0.0
08/08:00pm 19.3 17.8 14.1 72 3.0 SW 15 24 8 13 1011.1 1011.0 0.0
08/07:30pm 19.8 18.3 14.2 70 3.2 SW 15 26 8 14 1010.8 1010.7 0.0
08/07:00pm 20.4 18.7 13.6 65 3.9 SW 15 22 8 12 1010.5 1010.4 0.0
08/06:30pm 21.3 20.6 14.2 64 4.1 SW 11 22 6 12 1010.1 1010.0 0.0
08/06:00pm 21.7 20.4 13.6 60 4.7 SSW 13 22 7 12 1009.7 1009.6 0.0
08/05:30pm 22.2 20.0 13.3 57 5.1 SW 17 24 9 13 1009.3 1009.2 0.0
08/05:00pm 22.9 20.2 12.8 53 5.8 SW 19 28 10 15 1008.9 1008.8 0.0
08/04:30pm 23.1 21.4 13.6 55 5.5 SW 15 28 8 15 1008.7 1008.6 0.0
08/04:00pm 24.1 21.7 13.9 53 6.0 SW 19 26 10 14 1008.6 1008.5 0.0
08/03:30pm 24.9 22.7 14.4 52 6.2 WSW 19 28 10 15 1008.8 1008.7 0.0
08/03:00pm 24.8 22.5 14.6 53 6.1 SW 20 32 11 17 1008.7 1008.6 0.0
08/02:30pm 25.3 23.6 14.7 51 6.3 WSW 17 28 9 15 1008.4 1008.3 0.0
08/02:00pm 25.3 23.2 14.7 51 6.3 SW 19 37 10 20 1008.4 1008.3 0.0
08/01:30pm 26.2 24.1 14.6 48 6.9 SW 19 32 10 17 1008.2 1008.1 0.0
08/01:00pm 26.3 24.0 14.1 47 7.3 WSW 19 26 10 14 1008.1 1008.0 0.0
08/12:30pm 26.4 24.0 14.5 48 7.1 SW 20 32 11 17 1007.9 1007.8 0.0
08/12:00pm 27.6 26.5 15.3 47 7.5 WSW 15 28 8 15 1007.7 1007.6 0.0
08/11:30am 27.1 25.5 13.8 44 7.9 SW 15 22 8 12 1007.7 1007.6 0.0
08/11:00am 26.6 25.1 11.9 40 8.5 SW 11 22 6 12 1007.6 1007.5 0.0
08/10:30am 26.5 25.0 11.8 40 8.4 SW 11 22 6 12 1007.7 1007.6 0.0
08/10:00am 25.6 24.3 12.4 43 7.6 SW 11 24 6 13 1007.9 1007.8 0.0
08/09:30am 25.4 24.0 12.3 44 7.5 W 11 20 6 11 1007.9 1007.8 0.0
08/09:00am 25.3 24.7 10.4 39 8.3 N 4 11 2 6 1007.9 1007.8 0.0
08/08:30am 23.7 22.5 9.7 41 7.6 SSW 6 9 3 5 1007.9 1007.8 0.0
08/08:00am 22.9 21.5 9.7 43 7.2 SSW 7 11 4 6 1007.7 1007.6 0.0
08/07:30am 22.5 21.7 9.6 44 7.0 SSW 4 9 2 5 1006.9 1006.8 0.0
08/07:00am 21.7 20.4 9.9 47 6.4 WSW 7 13 4 7 1006.5 1006.4 0.0
08/06:30am 20.3 18.9 8.9 48 6.0 SSW 6 13 3 7 1005.9 1005.8 0.0
08/06:00am 19.1 18.1 8.7 51 5.4 NW 4 11 2 6 1004.9 1004.8 0.0
08/05:30am 19.0 16.6 8.6 51 5.4 E 11 26 6 14 1004.1 1004.0 0.0
08/05:00am 19.1 16.6 8.4 50 5.6 E 11 28 6 15 1003.7 1003.6 0.0
08/04:30am 19.4 16.5 8.1 48 5.8 E 13 30 7 16 1003.7 1003.6 0.0
08/04:00am 18.8 17.1 8.5 51 5.4 SE 7 19 4 10 1004.2 1004.1 0.0
08/03:30am 17.8 16.3 8.6 55 4.7 E 6 9 3 5 1004.3 1004.2 0.0
08/03:00am 18.4 17.0 8.7 53 5.1 SSE 6 9 3 5 1004.8 1004.7 0.0
08/02:30am 18.2 16.8 8.7 54 4.9 SE 6 11 3 6 1004.6 1004.5 0.0
08/02:00am 18.9 16.6 9.1 53 5.2 SSE 11 20 6 11 1004.3 1004.2 0.0
08/01:30am 19.6 17.0 9.2 51 5.5 S 13 24 7 13 1003.9 1003.8 0.0
08/01:00am 20.4 17.3 9.0 48 6.0 SSE 15 33 8 18 1002.9 1002.8 0.0
08/12:30am 21.5 18.5 9.1 45 6.6 SSE 15 33 8 18 1002.8 1002.7 0.0
08/12:00am 22.9 20.0 8.2 39 7.8 SE 13 32 7 17 1002.8 1002.7 0.0
 
Date/Time
WST
Temp
°C
App
Temp
°C
Dew
Point
°C
Rel
Hum
%
Delta-T
°C
Wind Press
QNH
hPa
Press
MSL
hPa
Rain since
9am
mm
Dir  Spd
km/h
Gust
km/h
Spd
kts
Gust
kts
07/11:30pm 23.1 20.2 8.0 38 8.0 SSE 13 26 7 14 1003.1 1003.0 0.0
07/11:00pm 22.3 20.9 9.5 44 6.9 SSW 7 15 4 8 1003.7 1003.6 0.0
07/10:30pm 21.6 20.3 11.3 52 5.7 S 9 17 5 9 1004.0 1003.9 0.0
07/10:00pm 21.8 19.9 11.8 53 5.6 S 13 19 7 10 1004.3 1004.2 0.0
07/09:30pm 22.2 21.6 12.2 53 5.7 SSE 7 19 4 10 1004.3 1004.2 0.0
07/09:00pm 22.7 21.9 12.9 54 5.6 SSW 9 19 5 10 1004.3 1004.2 0.0
07/08:30pm 23.8 23.0 12.8 50 6.3 SSW 9 13 5 7 1003.9 1003.8 0.0
07/08:00pm 26.0 24.3 7.6 31 9.8 S 6 11 3 6 1004.1 1004.0 0.0
07/07:30pm 27.0 25.1 7.5 29 10.4 SSE 7 13 4 7 1004.1 1004.0 0.0
07/07:00pm 27.7 25.8 7.5 28 10.9 S 7 17 4 9 1004.3 1004.2 0.0
07/06:30pm 29.3 26.3 7.8 26 11.7 SSE 13 22 7 12 1004.3 1004.2 0.0
07/06:00pm 29.8 27.6 7.7 25 12.1 SSE 9 22 5 12 1004.5 1004.4 0.0
07/05:30pm 30.4 28.1 7.6 24 12.4 SSE 9 20 5 11 1004.5 1004.4 0.0
07/05:00pm 30.6 28.4 7.7 24 12.5 SE 9 19 5 10 1005.2 1005.1 0.0
07/04:30pm 30.7 28.2 8.4 25 12.3 SE 11 19 6 10 1005.7 1005.6 0.0
07/04:00pm 30.2 28.4 8.0 25 12.2 E 7 17 4 9 1006.1 1006.0 0.0
07/03:30pm 31.2 28.8 8.8 25 12.5 ENE 11 20 6 11 1006.4 1006.3 0.0
07/03:00pm 29.4 27.0 8.5 27 11.5 ESE 11 22 6 12 1006.9 1006.8 0.0
07/02:30pm 30.1 27.3 8.5 26 11.9 ESE 13 26 7 14 1007.3 1007.2 0.0

Latest Capital City Observations: Canberra | Sydney | Melbourne | Brisbane | Adelaide | Perth | Hobart | Darwin

Other formats

Comma delimited format used in spreadsheet applications
http://www.bom.gov.au/fwo/IDW60901/IDW60901.94795.axf

JavaScript Object Notation format (JSON) in row-major order
http://www.bom.gov.au/fwo/IDW60901/IDW60901.94795.json

Data quality

Most of these data are generated automatically and are frequently updated. Quality checks on data are not normally performed. It is possible for incorrect values to appear. Refer to information at About Latest Weather Observations and please check the disclaimer before using these data.